createdAt,value
2022-11-05T00:00:36.776Z,9.90
2022-11-05T00:03:28.283Z,8.20
2022-11-05T00:06:14.513Z,9.80
2022-11-05T00:09:00.482Z,9.20
2022-11-05T00:11:47.110Z,7.50
2022-11-05T00:14:33.462Z,8.70
2022-11-05T00:17:00.885Z,8.10
2022-11-05T00:19:28.195Z,7.60
2022-11-05T00:22:16.780Z,8.20
2022-11-05T00:25:09.721Z,8.50
2022-11-05T00:27:36.989Z,8.90
2022-11-05T00:30:05.269Z,10.50
2022-11-05T00:32:32.949Z,9.70
2022-11-05T00:35:00.301Z,9.10
2022-11-05T00:37:28.639Z,8.70
2022-11-05T00:39:56.038Z,8.30
2022-11-05T00:42:42.432Z,7.80
2022-11-05T00:45:10.284Z,9.60
2022-11-05T00:47:58.152Z,8.80
2022-11-05T00:50:25.474Z,9.50
2022-11-05T00:52:57.886Z,9.90
2022-11-05T00:55:28.523Z,10.00
2022-11-05T00:57:57.128Z,7.40
2022-11-05T01:00:26.469Z,8.80
2022-11-05T01:02:53.818Z,9.10
2022-11-05T01:05:21.176Z,8.70
2022-11-05T01:07:48.425Z,10.30
2022-11-05T01:10:15.884Z,8.80
2022-11-05T01:12:43.314Z,10.20
2022-11-05T01:15:10.657Z,8.90
2022-11-05T01:17:37.940Z,10.20
2022-11-05T01:20:05.521Z,9.70
2022-11-05T01:22:32.795Z,9.20
2022-11-05T01:25:00.135Z,9.40
2022-11-05T01:27:27.760Z,8.60
2022-11-05T01:29:55.045Z,9.50
2022-11-05T01:32:22.272Z,8.40
2022-11-05T01:34:49.526Z,8.60
2022-11-05T01:37:16.811Z,8.60
2022-11-05T01:39:43.961Z,9.30
2022-11-05T01:42:18.623Z,9.70
2022-11-05T01:45:08.891Z,9.50
2022-11-05T01:47:36.103Z,9.70
2022-11-05T01:50:16.250Z,11.00
2022-11-05T01:52:43.646Z,9.20
2022-11-05T01:55:13.941Z,10.10
2022-11-05T01:57:41.795Z,9.20
2022-11-05T02:00:10.603Z,9.70
2022-11-05T02:02:40.398Z,8.50
2022-11-05T02:05:12.352Z,10.00
2022-11-05T02:07:40.633Z,9.90
2022-11-05T02:10:14.435Z,11.10
2022-11-05T02:12:48.605Z,10.10
2022-11-05T02:15:40.647Z,10.90
2022-11-05T02:18:20.472Z,10.40
2022-11-05T02:21:18.793Z,10.10
2022-11-05T02:24:27.602Z,9.50
2022-11-05T02:26:57.654Z,9.20
2022-11-05T02:29:39.840Z,10.10
2022-11-05T02:32:18.891Z,10.50
2022-11-05T02:34:53.912Z,11.40
2022-11-05T02:37:41.034Z,11.10
2022-11-05T02:40:20.906Z,11.30
2022-11-05T02:43:15.138Z,10.60
2022-11-05T02:46:30.406Z,10.50
2022-11-05T02:49:12.598Z,11.20
2022-11-05T02:51:52.244Z,14.60
2022-11-05T02:55:04.352Z,10.80
2022-11-05T02:57:36.771Z,11.70
2022-11-05T03:00:29.117Z,11.30
2022-11-05T03:02:56.377Z,11.30
2022-11-05T03:05:34.915Z,11.40
2022-11-05T03:08:12.942Z,11.30
2022-11-05T03:10:50.693Z,11.90
2022-11-05T03:13:21.681Z,26.50
2022-11-05T03:16:05.758Z,20.20
2022-11-05T03:18:42.554Z,13.00
2022-11-05T03:21:21.488Z,13.80
2022-11-05T03:23:58.081Z,14.00
2022-11-05T03:26:39.076Z,14.60
2022-11-05T03:29:11.636Z,13.50
2022-11-05T03:31:41.918Z,13.00
2022-11-05T03:34:13.064Z,12.50
2022-11-05T03:36:49.138Z,11.90
2022-11-05T03:39:22.226Z,12.40
2022-11-05T03:41:53.173Z,12.00
2022-11-05T03:44:27.229Z,13.80
2022-11-05T03:47:02.484Z,13.40
2022-11-05T03:49:36.722Z,14.90
2022-11-05T03:52:09.752Z,16.30
2022-11-05T03:54:37.082Z,14.60
2022-11-05T03:57:20.482Z,15.10
2022-11-05T03:59:50.081Z,13.80
2022-11-05T04:02:20.692Z,14.80
2022-11-05T04:04:48.417Z,15.50
2022-11-05T04:07:34.164Z,15.30
2022-11-05T04:10:19.958Z,15.60
2022-11-05T04:13:05.741Z,16.50
2022-11-05T04:15:55.695Z,15.90
2022-11-05T04:18:22.931Z,11.20
2022-11-05T04:21:08.688Z,15.10
2022-11-05T04:23:54.663Z,13.50
2022-11-05T04:26:23.586Z,16.00
2022-11-05T04:29:10.581Z,16.40
2022-11-05T04:31:38.637Z,16.50
2022-11-05T04:34:06.212Z,17.00
2022-11-05T04:36:33.669Z,14.40
2022-11-05T04:39:00.825Z,15.70
2022-11-05T04:41:28.126Z,17.10
2022-11-05T04:43:55.309Z,17.60
2022-11-05T04:46:22.693Z,17.70
2022-11-05T04:48:50.011Z,18.90
2022-11-05T04:51:17.340Z,20.20
2022-11-05T04:53:44.642Z,20.90
2022-11-05T04:56:15.825Z,20.30
2022-11-05T04:58:43.242Z,17.90
2022-11-05T05:01:16.308Z,18.80
2022-11-05T05:03:44.144Z,18.00
2022-11-05T05:06:11.599Z,17.00
2022-11-05T05:08:38.788Z,20.10
2022-11-05T05:11:09.089Z,21.60
2022-11-05T05:13:36.282Z,21.40
2022-11-05T05:16:08.308Z,23.00
2022-11-05T05:18:35.978Z,21.30
2022-11-05T05:21:22.517Z,20.60
2022-11-05T05:23:49.962Z,22.40
2022-11-05T05:26:17.335Z,21.20
2022-11-05T05:28:44.688Z,21.20
2022-11-05T05:31:11.882Z,19.90
2022-11-05T05:33:39.127Z,21.60
2022-11-05T05:36:11.145Z,22.40
2022-11-05T05:38:39.061Z,22.50
2022-11-05T05:41:06.545Z,21.40
2022-11-05T05:43:34.310Z,18.90
2022-11-05T05:46:05.839Z,20.50
2022-11-05T05:48:33.694Z,18.20
2022-11-05T05:51:09.436Z,18.50
2022-11-05T05:53:37.245Z,21.40
2022-11-05T05:56:05.796Z,21.10
2022-11-05T05:58:35.963Z,24.10
2022-11-05T06:01:06.680Z,17.40
2022-11-05T06:03:34.815Z,21.60
2022-11-05T06:06:04.375Z,21.60
2022-11-05T06:08:32.369Z,19.50
2022-11-05T06:11:00.498Z,20.70
2022-11-05T06:13:28.518Z,21.70
2022-11-05T06:16:03.220Z,23.10
2022-11-05T06:18:31.808Z,29.20
2022-11-05T06:21:06.772Z,24.50
2022-11-05T06:23:35.144Z,23.80
2022-11-05T06:26:03.734Z,34.20
2022-11-05T06:28:31.189Z,35.50
2022-11-05T06:30:58.309Z,24.70
2022-11-05T06:33:26.367Z,23.40
2022-11-05T06:35:54.364Z,26.50
2022-11-05T06:38:21.455Z,28.50
2022-11-05T06:40:48.574Z,56.60
2022-11-05T06:43:15.871Z,30.30
2022-11-05T06:45:43.085Z,37.00
2022-11-05T06:48:10.229Z,26.30
2022-11-05T06:50:37.409Z,24.10
2022-11-05T06:53:05.503Z,21.40
2022-11-05T06:55:32.652Z,24.60
2022-11-05T06:57:59.987Z,23.90
2022-11-05T07:00:27.118Z,24.10
2022-11-05T07:02:56.030Z,29.70
2022-11-05T07:05:23.765Z,27.80
2022-11-05T07:07:51.034Z,27.20
2022-11-05T07:10:19.142Z,28.40
2022-11-05T07:12:46.288Z,29.90
2022-11-05T07:15:13.677Z,39.00
2022-11-05T07:17:41.090Z,25.40
2022-11-05T07:20:09.637Z,27.70
2022-11-05T07:22:37.183Z,30.30
2022-11-05T07:25:05.381Z,25.90
2022-11-05T07:27:37.577Z,26.20
2022-11-05T07:30:06.941Z,23.00
2022-11-05T07:32:38.502Z,21.20
2022-11-05T07:35:07.177Z,23.50
2022-11-05T07:37:42.359Z,21.50
2022-11-05T07:40:10.765Z,23.20
2022-11-05T07:42:38.018Z,25.20
2022-11-05T07:45:05.693Z,27.80
2022-11-05T07:47:32.831Z,30.50
2022-11-05T07:49:59.954Z,26.40
2022-11-05T07:52:27.302Z,27.80
2022-11-05T07:54:54.462Z,25.10
2022-11-05T07:57:21.599Z,24.90
2022-11-05T07:59:48.772Z,25.90
2022-11-05T08:02:15.980Z,26.90
2022-11-05T08:04:43.384Z,25.70
2022-11-05T08:07:10.430Z,24.60
2022-11-05T08:09:37.534Z,26.30
2022-11-05T08:12:05.048Z,28.80
2022-11-05T08:14:32.363Z,25.60
2022-11-05T08:16:59.475Z,25.80
2022-11-05T08:19:26.598Z,21.30
2022-11-05T08:21:53.740Z,24.70
2022-11-05T08:24:20.877Z,29.40
2022-11-05T08:26:48.027Z,29.60
2022-11-05T08:29:15.265Z,28.40
2022-11-05T08:31:42.414Z,32.40
2022-11-05T08:34:09.696Z,32.90
2022-11-05T08:36:36.838Z,33.70
2022-11-05T08:39:04.368Z,25.70
2022-11-05T08:41:31.497Z,24.40
2022-11-05T08:43:58.631Z,28.20
2022-11-05T08:46:25.836Z,30.80
2022-11-05T08:48:53.265Z,24.20
2022-11-05T08:51:20.377Z,24.40
2022-11-05T08:53:47.503Z,32.70
2022-11-05T08:56:14.671Z,27.00
2022-11-05T08:58:41.792Z,31.00
2022-11-05T09:01:08.953Z,43.60
2022-11-05T09:03:36.436Z,51.10
2022-11-05T09:06:03.721Z,38.80
2022-11-05T09:08:30.981Z,31.30
2022-11-05T09:10:58.113Z,31.90
2022-11-05T09:13:25.956Z,33.70
2022-11-05T09:15:53.781Z,21.70
2022-11-05T09:18:21.213Z,36.90
2022-11-05T09:20:48.414Z,31.20
2022-11-05T09:23:15.792Z,25.40
2022-11-05T09:25:44.282Z,25.80
2022-11-05T09:28:16.756Z,28.40
2022-11-05T09:30:49.922Z,20.70
2022-11-05T09:33:19.644Z,17.00
2022-11-05T09:35:46.846Z,18.30
2022-11-05T09:38:14.044Z,28.10
2022-11-05T09:40:53.493Z,17.50
2022-11-05T09:43:31.236Z,22.00
2022-11-05T09:46:03.417Z,17.90
2022-11-05T09:48:32.791Z,17.00
2022-11-05T09:51:00.006Z,23.10
2022-11-05T09:53:28.265Z,16.70
2022-11-05T09:55:57.972Z,21.20
2022-11-05T09:59:00.700Z,17.90
2022-11-05T10:01:35.461Z,21.20
2022-11-05T10:04:09.381Z,25.40
2022-11-05T10:06:42.994Z,18.50
2022-11-05T10:09:31.423Z,32.80
2022-11-05T10:12:07.121Z,17.50
2022-11-05T10:17:22.470Z,25.90
2022-11-05T10:20:03.411Z,15.90
2022-11-05T10:22:30.493Z,21.90
2022-11-05T10:24:57.728Z,15.40
2022-11-05T10:27:27.853Z,14.60
2022-11-05T10:29:55.555Z,17.80
2022-11-05T10:32:31.537Z,18.70
2022-11-05T10:35:01.166Z,24.80
2022-11-05T10:37:29.526Z,21.80
2022-11-05T10:39:56.927Z,19.00
2022-11-05T10:42:46.476Z,23.10
2022-11-05T10:45:29.609Z,32.40
2022-11-05T10:48:35.281Z,19.30
2022-11-05T10:51:04.468Z,21.90
2022-11-05T10:53:34.198Z,18.10
2022-11-05T10:56:01.325Z,20.50
2022-11-05T10:58:30.673Z,20.70
2022-11-05T11:00:57.819Z,18.30
2022-11-05T11:03:48.242Z,16.40
2022-11-05T11:06:18.049Z,15.80
2022-11-05T11:08:47.292Z,14.70
2022-11-05T11:11:27.960Z,15.00
2022-11-05T11:13:58.196Z,14.20
2022-11-05T11:16:28.293Z,14.00
2022-11-05T11:18:58.593Z,13.60
2022-11-05T11:21:26.974Z,13.70
2022-11-05T11:23:56.945Z,12.70
2022-11-05T11:26:33.161Z,12.70
2022-11-05T11:29:07.419Z,11.30
2022-11-05T11:31:38.663Z,11.30
2022-11-05T11:34:26.298Z,10.60
2022-11-05T11:37:09.508Z,10.90
2022-11-05T11:39:38.598Z,9.70
2022-11-05T11:42:18.797Z,11.20
2022-11-05T11:44:48.436Z,12.00
2022-11-05T11:47:18.960Z,13.80
2022-11-05T11:50:00.500Z,11.40
2022-11-05T11:52:37.513Z,12.20
2022-11-05T11:55:19.456Z,11.00
2022-11-05T11:58:04.825Z,11.20
2022-11-05T12:00:39.898Z,10.70
2022-11-05T12:03:29.456Z,11.90
2022-11-05T12:06:11.590Z,10.60
2022-11-05T12:09:06.490Z,11.60
2022-11-05T12:11:45.861Z,12.70
2022-11-05T12:14:46.609Z,12.70
2022-11-05T12:17:38.803Z,12.60
2022-11-05T12:20:24.352Z,13.20
2022-11-05T12:23:20.594Z,11.60
2022-11-05T12:26:06.284Z,11.30
2022-11-05T12:28:57.880Z,10.40
2022-11-05T12:31:44.479Z,10.70
2022-11-05T12:34:23.710Z,10.80
2022-11-05T12:37:12.348Z,11.70
2022-11-05T12:39:51.613Z,10.70
2022-11-05T12:42:21.729Z,11.90
2022-11-05T12:45:25.783Z,11.60
2022-11-05T12:48:09.477Z,13.10
2022-11-05T12:50:48.445Z,12.30
2022-11-05T12:53:40.990Z,11.80
2022-11-05T12:56:18.465Z,13.20
2022-11-05T12:58:50.882Z,10.60
2022-11-05T13:01:38.462Z,10.20
2022-11-05T13:04:14.703Z,10.50
2022-11-05T13:06:46.965Z,10.40
2022-11-05T13:09:23.357Z,11.50
2022-11-05T13:11:54.693Z,10.90
2022-11-05T13:14:27.147Z,10.50
2022-11-05T13:17:00.388Z,8.90
2022-11-05T13:19:37.541Z,9.00
2022-11-05T13:22:18.952Z,9.50
2022-11-05T13:24:57.874Z,10.10
2022-11-05T13:28:16.381Z,9.20
2022-11-05T13:30:51.868Z,11.10
2022-11-05T13:33:23.792Z,10.40
2022-11-05T13:36:32.849Z,11.10
2022-11-05T13:39:19.725Z,11.10
2022-11-05T13:42:28.322Z,11.10
2022-11-05T13:45:28.004Z,9.60
2022-11-05T13:48:13.476Z,9.30
2022-11-05T13:50:49.808Z,7.70
2022-11-05T13:53:47.950Z,7.50
2022-11-05T13:56:17.807Z,7.90
2022-11-05T13:58:55.401Z,7.30
2022-11-05T14:01:34.782Z,5.40
2022-11-05T14:04:03.216Z,5.50
2022-11-05T14:06:33.621Z,6.00
2022-11-05T14:09:07.196Z,4.80
2022-11-05T14:11:48.919Z,3.90
2022-11-05T14:14:23.457Z,4.40
2022-11-05T14:17:13.084Z,4.90
2022-11-05T14:19:51.405Z,4.10
2022-11-05T14:22:33.735Z,3.90
2022-11-05T14:25:22.341Z,4.40
2022-11-05T14:27:52.203Z,4.60
2022-11-05T14:30:41.569Z,4.70
2022-11-05T14:33:37.484Z,4.70
2022-11-05T14:36:37.745Z,3.90
2022-11-05T14:39:38.716Z,4.50
2022-11-05T14:42:15.081Z,3.40
2022-11-05T14:44:56.700Z,3.20
2022-11-05T14:47:27.567Z,3.60
2022-11-05T14:50:09.222Z,4.80
2022-11-05T14:52:38.654Z,5.50
2022-11-05T14:55:07.420Z,8.10
2022-11-05T14:57:43.558Z,6.00
2022-11-05T15:00:40.507Z,6.00
2022-11-05T15:03:33.964Z,9.90
2022-11-05T15:06:23.629Z,11.30
2022-11-05T15:08:50.700Z,12.80
2022-11-05T15:11:29.239Z,21.50
2022-11-05T15:13:56.257Z,16.70
2022-11-05T15:16:27.182Z,8.70
2022-11-05T15:18:56.668Z,10.40
2022-11-05T15:21:25.251Z,16.80
2022-11-05T15:23:56.839Z,14.20
2022-11-05T15:26:28.658Z,14.00
2022-11-05T15:28:56.697Z,10.60
2022-11-05T15:31:37.398Z,25.60
2022-11-05T15:34:35.982Z,30.10
2022-11-05T15:37:21.500Z,25.60
2022-11-05T15:39:50.468Z,20.90
2022-11-05T15:42:25.904Z,65.80
2022-11-05T15:44:55.633Z,49.20
2022-11-05T15:47:25.807Z,43.40
2022-11-05T15:50:02.291Z,93.50
2022-11-05T15:52:36.684Z,48.30
2022-11-05T15:55:23.880Z,45.40
2022-11-05T15:58:01.244Z,252.60
2022-11-05T16:00:31.169Z,83.20
2022-11-05T16:03:01.927Z,63.50
2022-11-05T16:05:32.782Z,44.80
2022-11-05T16:08:01.829Z,44.00
2022-11-05T16:10:31.396Z,99.50
2022-11-05T16:13:27.371Z,114.90
2022-11-05T16:15:56.485Z,41.90
2022-11-05T16:18:29.666Z,63.30
2022-11-05T16:21:23.665Z,94.90
2022-11-05T16:23:57.311Z,54.90
2022-11-05T16:26:55.889Z,61.80
2022-11-05T16:29:40.355Z,73.10
2022-11-05T16:32:17.003Z,167.20
2022-11-05T16:34:53.865Z,73.20
2022-11-05T16:37:24.535Z,78.70
2022-11-05T16:39:52.626Z,83.10
2022-11-05T16:42:22.556Z,24.00
2022-11-05T16:44:50.789Z,21.90
2022-11-05T16:47:19.068Z,23.40
2022-11-05T16:49:48.281Z,202.70
2022-11-05T16:52:16.155Z,28.90
2022-11-05T16:54:43.503Z,26.60
2022-11-05T16:57:31.316Z,18.60
2022-11-05T17:00:00.321Z,14.80
2022-11-05T17:02:28.331Z,33.50
2022-11-05T17:04:55.572Z,47.80
2022-11-05T17:07:22.871Z,22.20
2022-11-05T17:09:50.042Z,26.90
2022-11-05T17:12:17.152Z,29.50
2022-11-05T17:14:44.606Z,112.30
2022-11-05T17:17:11.812Z,49.10
2022-11-05T17:19:42.518Z,35.10
2022-11-05T17:22:09.919Z,23.90
2022-11-05T17:24:37.636Z,26.40
2022-11-05T17:27:04.718Z,25.70
2022-11-05T17:29:31.877Z,16.40
2022-11-05T17:31:59.019Z,22.90
2022-11-05T17:34:26.220Z,39.80
2022-11-05T17:36:53.403Z,29.80
2022-11-05T17:39:20.447Z,28.50
2022-11-05T17:41:48.001Z,12.00
2022-11-05T17:44:15.116Z,17.50
2022-11-05T17:46:42.271Z,16.10
2022-11-05T17:49:09.377Z,23.80
2022-11-05T17:51:36.500Z,15.70
2022-11-05T17:54:04.291Z,11.10
2022-11-05T17:56:34.964Z,32.20
2022-11-05T17:59:03.651Z,26.50
2022-11-05T18:01:34.718Z,16.30
2022-11-05T18:04:08.338Z,25.70
2022-11-05T18:06:41.123Z,15.00
2022-11-05T18:09:10.224Z,18.50
2022-11-05T18:11:39.080Z,16.90
2022-11-05T18:14:06.817Z,15.20
2022-11-05T18:16:34.458Z,14.10
2022-11-05T18:19:01.942Z,16.00
2022-11-05T18:21:29.005Z,14.80
2022-11-05T18:23:56.155Z,11.30
2022-11-05T18:26:23.367Z,10.70
2022-11-05T18:28:50.585Z,10.80
2022-11-05T18:31:22.193Z,9.20
2022-11-05T18:33:50.719Z,8.40
2022-11-05T18:36:22.551Z,9.50
2022-11-05T18:38:49.931Z,17.40
2022-11-05T18:41:18.887Z,12.00
2022-11-05T18:43:46.232Z,14.30
2022-11-05T18:46:35.937Z,11.40
2022-11-05T18:49:00.865Z,9.50
2022-11-05T18:51:28.471Z,10.40
2022-11-05T18:53:56.360Z,9.80
2022-11-05T18:56:24.572Z,13.80
2022-11-05T18:59:14.807Z,44.20
2022-11-05T19:01:41.194Z,24.30
2022-11-05T19:04:09.516Z,17.10
2022-11-05T19:06:37.523Z,15.40
2022-11-05T19:09:06.695Z,25.30
2022-11-05T19:11:33.929Z,14.80
2022-11-05T19:14:01.342Z,18.80
2022-11-05T19:16:30.394Z,23.70
2022-11-05T19:19:02.616Z,21.50
2022-11-05T19:21:30.558Z,18.50
2022-11-05T19:24:02.639Z,37.10
2022-11-05T19:26:30.414Z,23.70
2022-11-05T19:28:59.822Z,23.20
2022-11-05T19:31:30.439Z,98.40
2022-11-05T19:33:57.942Z,44.20
2022-11-05T19:36:25.631Z,27.70
2022-11-05T19:38:57.942Z,31.30
2022-11-05T19:41:26.044Z,38.70
2022-11-05T19:43:54.474Z,36.40
2022-11-05T19:46:23.376Z,30.10
2022-11-05T19:48:50.821Z,31.30
2022-11-05T19:51:20.713Z,48.40
2022-11-05T19:53:47.923Z,75.60
2022-11-05T19:56:18.374Z,397.70
2022-11-05T19:58:45.913Z,255.10
2022-11-05T20:01:14.700Z,166.20
2022-11-05T20:03:42.040Z,125.80
2022-11-05T20:06:15.624Z,24.90
2022-11-05T20:09:14.783Z,12.80
2022-11-05T20:11:30.190Z,16.80
2022-11-05T20:13:57.762Z,16.00
2022-11-05T20:16:36.961Z,11.20
2022-11-05T20:19:06.713Z,11.10
2022-11-05T20:21:34.571Z,14.50
2022-11-05T20:24:02.614Z,14.80
2022-11-05T20:26:30.312Z,12.30
2022-11-05T20:28:57.373Z,11.00
2022-11-05T20:31:24.435Z,14.30
2022-11-05T20:33:52.234Z,18.10
2022-11-05T20:36:22.331Z,23.80
2022-11-05T20:38:50.919Z,60.80
2022-11-05T20:41:19.319Z,49.50
2022-11-05T20:43:48.110Z,49.30
2022-11-05T20:46:19.459Z,48.90
2022-11-05T20:48:46.755Z,54.60
2022-11-05T20:51:16.833Z,60.60
2022-11-05T20:53:46.264Z,73.50
2022-11-05T20:56:18.164Z,73.00
2022-11-05T20:58:45.430Z,53.40
2022-11-05T21:01:13.679Z,39.80
2022-11-05T21:03:40.859Z,30.60
2022-11-05T21:06:08.064Z,40.70
2022-11-05T21:08:35.722Z,49.10
2022-11-05T21:11:03.697Z,67.30
2022-11-05T21:13:30.888Z,33.10
2022-11-05T21:15:59.824Z,31.60
2022-11-05T21:18:30.262Z,28.50
2022-11-05T21:20:59.891Z,21.00
2022-11-05T21:23:28.373Z,24.50
2022-11-05T21:25:55.917Z,23.20
2022-11-05T21:28:23.478Z,24.20
2022-11-05T21:30:50.649Z,21.70
2022-11-05T21:33:18.811Z,23.70
2022-11-05T21:35:48.267Z,21.90
2022-11-05T21:38:16.723Z,18.40
2022-11-05T21:40:45.036Z,16.00
2022-11-05T21:43:13.162Z,19.10
2022-11-05T21:45:41.751Z,26.70
2022-11-05T21:48:09.620Z,22.80
2022-11-05T21:50:58.598Z,27.90
2022-11-05T21:53:44.969Z,23.60
2022-11-05T21:56:39.986Z,19.50
2022-11-05T21:59:28.611Z,26.90
2022-11-05T22:02:02.036Z,24.90
2022-11-05T22:04:31.501Z,20.00
2022-11-05T22:06:59.330Z,17.30
2022-11-05T22:09:26.750Z,19.10
2022-11-05T22:11:54.215Z,20.20
2022-11-05T22:14:21.982Z,23.50
2022-11-05T22:16:49.093Z,27.70
2022-11-05T22:19:16.784Z,45.10
2022-11-05T22:21:43.951Z,37.70
2022-11-05T22:24:11.121Z,41.00
2022-11-05T22:26:39.724Z,55.80
2022-11-05T22:29:07.615Z,33.80
2022-11-05T22:31:36.688Z,21.70
2022-11-05T22:34:05.052Z,17.50
2022-11-05T22:36:33.226Z,17.20
2022-11-05T22:39:00.472Z,15.10
2022-11-05T22:41:27.780Z,13.50
2022-11-05T22:43:54.877Z,13.10
2022-11-05T22:46:24.296Z,13.20
2022-11-05T22:48:52.556Z,12.60
2022-11-05T22:51:25.649Z,12.70
2022-11-05T22:53:53.491Z,11.80
2022-11-05T22:56:23.566Z,11.80
2022-11-05T22:58:50.769Z,9.20
2022-11-05T23:01:19.326Z,10.10
2022-11-05T23:03:47.924Z,12.20
2022-11-05T23:06:42.461Z,11.70
2022-11-05T23:09:35.493Z,13.10
2022-11-05T23:12:05.667Z,15.30
2022-11-05T23:14:33.037Z,25.80
2022-11-05T23:17:18.948Z,32.00
2022-11-05T23:20:04.808Z,28.70
2022-11-05T23:22:51.322Z,33.60
2022-11-05T23:25:21.573Z,27.20
2022-11-05T23:27:52.377Z,19.40
2022-11-05T23:30:25.277Z,18.30
2022-11-05T23:32:55.949Z,20.10
2022-11-05T23:35:43.403Z,19.20
2022-11-05T23:38:29.435Z,28.60
2022-11-05T23:41:19.985Z,30.40
2022-11-05T23:44:05.869Z,22.70
2022-11-05T23:46:51.890Z,15.00
2022-11-05T23:51:46.412Z,14.90
2022-11-05T23:54:13.719Z,16.20
2022-11-05T23:56:41.191Z,27.30
2022-11-05T23:59:08.719Z,19.20
